createdAt,value
2022-09-17T00:02:51.819Z,4.50
2022-09-17T00:07:54.635Z,4.90
2022-09-17T00:12:57.553Z,6.00
2022-09-17T00:18:00.542Z,7.30
2022-09-17T00:23:03.447Z,3.80
2022-09-17T00:28:06.247Z,5.30
2022-09-17T00:33:12.273Z,4.50
2022-09-17T00:38:14.938Z,6.40
2022-09-17T00:43:42.016Z,5.50
2022-09-17T00:48:45.416Z,5.80
2022-09-17T00:53:48.750Z,3.80
2022-09-17T00:58:52.880Z,2.20
2022-09-17T01:03:55.699Z,7.80
2022-09-17T01:09:13.916Z,8.10
2022-09-17T01:14:38.324Z,5.30
2022-09-17T01:19:44.095Z,2.70
2022-09-17T01:24:48.943Z,4.10
2022-09-17T01:30:16.024Z,7.20
2022-09-17T01:35:38.413Z,8.10
2022-09-17T01:40:44.349Z,7.30
2022-09-17T01:45:52.427Z,9.10
2022-09-17T01:51:00.912Z,5.40
2022-09-17T01:56:05.351Z,7.30
2022-09-17T02:01:11.043Z,7.60
2022-09-17T02:06:21.085Z,9.00
2022-09-17T02:11:24.195Z,6.70
2022-09-17T02:16:36.356Z,5.70
2022-09-17T02:21:57.151Z,5.50
2022-09-17T02:27:06.479Z,3.20
2022-09-17T02:32:10.037Z,6.90
2022-09-17T02:37:12.775Z,2.10
2022-09-17T02:42:33.970Z,5.10
2022-09-17T02:47:58.658Z,4.70
2022-09-17T02:53:04.121Z,3.40
2022-09-17T02:58:21.479Z,2.30
2022-09-17T03:03:32.290Z,5.50
2022-09-17T03:08:41.914Z,4.90
2022-09-17T03:13:44.713Z,4.90
2022-09-17T03:18:47.417Z,4.40
2022-09-17T03:23:50.111Z,2.60
2022-09-17T03:28:52.745Z,9.00
2022-09-17T03:33:55.528Z,5.80
2022-09-17T03:38:59.263Z,4.20
2022-09-17T03:44:02.826Z,2.20
2022-09-17T03:49:05.517Z,3.30
2022-09-17T03:54:09.406Z,5.50
2022-09-17T03:59:12.053Z,6.30
2022-09-17T04:04:14.740Z,9.40
2022-09-17T04:09:17.470Z,7.80
2022-09-17T04:14:20.168Z,8.40
2022-09-17T04:19:22.806Z,14.00
2022-09-17T04:24:25.501Z,11.00
2022-09-17T04:29:28.682Z,8.30
2022-09-17T04:34:32.193Z,8.90
2022-09-17T04:39:35.208Z,8.50
2022-09-17T04:44:37.896Z,11.80
2022-09-17T04:49:40.902Z,9.60
2022-09-17T04:54:43.846Z,12.70
2022-09-17T04:59:46.505Z,13.20
2022-09-17T05:04:50.945Z,9.20
2022-09-17T05:09:53.955Z,9.10
2022-09-17T05:14:56.650Z,9.60
2022-09-17T05:19:59.554Z,12.60
2022-09-17T05:25:02.191Z,11.10
2022-09-17T05:30:07.188Z,10.10
2022-09-17T05:35:11.184Z,12.00
2022-09-17T05:40:13.831Z,4.90
2022-09-17T05:45:16.518Z,8.80
2022-09-17T05:50:19.148Z,10.30
2022-09-17T05:55:23.796Z,10.10
2022-09-17T06:00:26.981Z,9.50
2022-09-17T06:05:29.651Z,9.40
2022-09-17T06:10:32.787Z,10.60
2022-09-17T06:15:35.488Z,8.00
2022-09-17T06:20:38.119Z,9.60
2022-09-17T06:25:40.779Z,9.70
2022-09-17T06:30:43.487Z,6.40
2022-09-17T06:35:46.206Z,4.20
2022-09-17T06:40:52.470Z,6.40
2022-09-17T06:46:03.013Z,5.10
2022-09-17T06:51:09.223Z,6.30
2022-09-17T06:56:12.127Z,6.10
2022-09-17T07:01:15.075Z,4.30
2022-09-17T07:06:18.323Z,3.40
2022-09-17T07:11:20.962Z,4.60
2022-09-17T07:16:24.221Z,6.20
2022-09-17T07:21:27.074Z,6.80
2022-09-17T07:26:29.716Z,6.00
2022-09-17T07:31:32.922Z,6.00
2022-09-17T07:36:35.660Z,5.10
2022-09-17T07:41:38.982Z,5.10
2022-09-17T07:46:41.691Z,5.10
2022-09-17T07:51:44.507Z,5.80
2022-09-17T07:56:47.171Z,3.70
2022-09-17T08:01:50.221Z,5.90
2022-09-17T08:06:52.945Z,3.60
2022-09-17T08:11:56.624Z,3.20
2022-09-17T08:17:00.323Z,4.10
2022-09-17T08:22:03.403Z,7.30
2022-09-17T08:27:06.086Z,4.20
2022-09-17T08:32:09.031Z,3.80
2022-09-17T08:37:11.679Z,4.30
2022-09-17T08:42:20.268Z,5.20
2022-09-17T08:47:31.178Z,3.80
2022-09-17T08:52:54.950Z,5.10
2022-09-17T08:58:29.330Z,3.40
2022-09-17T09:03:50.461Z,3.90
2022-09-17T09:09:03.790Z,5.30
2022-09-17T09:14:35.997Z,6.20
2022-09-17T09:19:44.599Z,3.60
2022-09-17T09:25:12.249Z,5.50
2022-09-17T09:30:16.723Z,6.00
2022-09-17T09:35:20.907Z,4.50
2022-09-17T09:40:26.624Z,5.40
2022-09-17T09:45:57.291Z,4.50
2022-09-17T09:51:09.718Z,5.60
2022-09-17T09:56:33.705Z,4.80
2022-09-17T10:01:41.038Z,5.90
2022-09-17T10:06:44.314Z,6.20
2022-09-17T10:12:04.339Z,4.40
2022-09-17T10:17:23.513Z,3.90
2022-09-17T10:22:31.863Z,5.40
2022-09-17T10:27:36.892Z,4.30
2022-09-17T10:32:39.597Z,3.90
2022-09-17T10:37:50.695Z,7.80
2022-09-17T10:43:11.832Z,6.60
2022-09-17T10:48:21.795Z,6.00
2022-09-17T10:53:26.948Z,4.80
2022-09-17T10:58:39.185Z,5.00
2022-09-17T11:04:25.901Z,5.10
2022-09-17T11:09:54.208Z,7.10
2022-09-17T11:15:41.695Z,4.90
2022-09-17T11:20:53.182Z,5.20
2022-09-17T11:26:01.283Z,7.40
2022-09-17T11:31:28.654Z,4.60
2022-09-17T11:36:36.783Z,2.90
2022-09-17T11:41:44.303Z,5.80
2022-09-17T11:46:53.747Z,3.10
2022-09-17T11:52:03.935Z,6.20
2022-09-17T11:57:16.636Z,6.10
2022-09-17T12:02:29.484Z,8.40
2022-09-17T12:07:36.598Z,4.80
2022-09-17T12:12:50.109Z,4.30
2022-09-17T12:18:31.694Z,3.40
2022-09-17T12:23:48.661Z,4.50
2022-09-17T12:28:57.649Z,4.20
2022-09-17T12:34:21.110Z,4.10
2022-09-17T12:39:42.770Z,6.20
2022-09-17T12:45:14.446Z,4.70
2022-09-17T12:50:20.832Z,4.50
2022-09-17T12:55:54.758Z,5.20
2022-09-17T13:01:12.850Z,3.40
2022-09-17T13:06:24.947Z,4.60
2022-09-17T13:11:27.538Z,4.60
2022-09-17T13:17:02.802Z,4.90
2022-09-17T13:22:13.742Z,6.00
2022-09-17T13:27:28.448Z,4.10
2022-09-17T13:32:34.665Z,5.60
2022-09-17T13:42:49.153Z,5.90
2022-09-17T13:48:05.791Z,5.50
2022-09-17T13:53:17.293Z,5.40
2022-09-17T13:58:19.929Z,5.20
2022-09-17T14:03:28.740Z,6.20
2022-09-17T14:08:43.723Z,4.30
2022-09-17T14:13:46.741Z,4.90
2022-09-17T14:19:22.093Z,8.30
2022-09-17T14:24:45.063Z,4.30
2022-09-17T14:29:50.850Z,3.50
2022-09-17T14:34:53.714Z,3.20
2022-09-17T14:39:56.633Z,2.90
2022-09-17T14:45:05.151Z,2.60
2022-09-17T14:50:20.780Z,6.50
2022-09-17T14:55:26.493Z,3.40
2022-09-17T15:00:34.996Z,5.80
2022-09-17T15:05:40.863Z,9.80
2022-09-17T15:11:02.301Z,6.70
2022-09-17T15:16:14.499Z,5.00
2022-09-17T15:21:36.062Z,5.20
2022-09-17T15:26:42.181Z,3.50
2022-09-17T15:31:44.982Z,14.90
2022-09-17T15:37:16.511Z,23.30
2022-09-17T15:42:23.824Z,14.30
2022-09-17T15:47:49.477Z,9.20
2022-09-17T15:53:18.953Z,9.30
2022-09-17T15:58:36.951Z,12.50
2022-09-17T16:03:39.844Z,11.30
2022-09-17T16:08:42.624Z,10.50
2022-09-17T16:13:53.550Z,10.40
2022-09-17T16:18:56.752Z,12.30
2022-09-17T16:23:59.438Z,12.50
2022-09-17T16:29:10.994Z,20.20
2022-09-17T16:34:13.749Z,24.60
2022-09-17T16:39:16.446Z,15.80
2022-09-17T16:44:19.147Z,17.30
2022-09-17T16:49:21.845Z,57.10
2022-09-17T16:54:24.534Z,32.70
2022-09-17T16:59:27.183Z,17.70
2022-09-17T17:04:29.823Z,16.30
2022-09-17T17:09:32.691Z,9.10
2022-09-17T17:14:35.857Z,9.80
2022-09-17T17:19:39.063Z,7.20
2022-09-17T17:24:42.484Z,9.20
2022-09-17T17:29:45.152Z,8.90
2022-09-17T17:34:50.244Z,8.70
2022-09-17T17:39:54.107Z,12.00
2022-09-17T17:44:56.777Z,11.30
2022-09-17T17:49:59.554Z,12.40
2022-09-17T17:55:02.253Z,12.60
2022-09-17T18:00:06.007Z,13.10
2022-09-17T18:05:09.505Z,32.70
2022-09-17T18:10:13.153Z,20.50
2022-09-17T18:15:17.183Z,12.10
2022-09-17T18:20:22.195Z,7.80
2022-09-17T18:25:24.879Z,6.40
2022-09-17T18:30:27.531Z,6.00
2022-09-17T18:35:35.117Z,7.20
2022-09-17T18:40:37.862Z,5.90
2022-09-17T18:45:40.711Z,7.90
2022-09-17T18:50:43.507Z,10.80
2022-09-17T18:55:46.957Z,8.00
2022-09-17T19:00:49.713Z,7.70
2022-09-17T19:05:52.423Z,6.60
2022-09-17T19:10:55.127Z,6.40
2022-09-17T19:16:02.623Z,11.30
2022-09-17T19:21:11.528Z,10.20
2022-09-17T19:26:21.341Z,9.70
2022-09-17T19:31:24.649Z,16.10
2022-09-17T19:36:27.458Z,13.40
2022-09-17T19:41:33.437Z,12.50
2022-09-17T19:46:36.253Z,11.20
2022-09-17T19:51:39.138Z,10.30
2022-09-17T19:56:41.937Z,8.00
2022-09-17T20:01:48.680Z,8.40
2022-09-17T20:06:52.360Z,9.50
2022-09-17T20:11:55.276Z,10.00
2022-09-17T20:16:57.969Z,9.10
2022-09-17T20:22:00.615Z,8.20
2022-09-17T20:27:03.351Z,9.00
2022-09-17T20:32:06.050Z,8.50
2022-09-17T20:37:13.440Z,10.40
2022-09-17T20:42:16.673Z,8.50
2022-09-17T20:47:19.367Z,9.90
2022-09-17T20:52:22.578Z,9.40
2022-09-17T20:57:25.482Z,12.20
2022-09-17T21:02:28.395Z,9.20
2022-09-17T21:07:33.252Z,8.00
2022-09-17T21:12:36.240Z,7.90
2022-09-17T21:17:41.008Z,8.40
2022-09-17T21:22:43.788Z,8.70
2022-09-17T21:27:46.405Z,8.90
2022-09-17T21:32:53.591Z,8.60
2022-09-17T21:37:56.208Z,10.50
2022-09-17T21:42:58.832Z,8.30
2022-09-17T21:48:01.794Z,9.00
2022-09-17T21:53:04.474Z,8.80
2022-09-17T21:58:07.179Z,9.70
2022-09-17T22:03:10.565Z,7.20
2022-09-17T22:08:13.322Z,11.70
2022-09-17T22:13:15.989Z,8.90
2022-09-17T22:18:18.696Z,10.00
2022-09-17T22:23:22.285Z,10.40
2022-09-17T22:28:24.909Z,8.50
2022-09-17T22:33:27.853Z,8.80
2022-09-17T22:38:30.540Z,9.50
2022-09-17T22:43:33.930Z,9.30
2022-09-17T22:48:36.562Z,9.30
2022-09-17T22:53:40.556Z,11.20
2022-09-17T22:58:43.871Z,12.30
2022-09-17T23:03:48.854Z,9.30
2022-09-17T23:08:52.754Z,10.10
2022-09-17T23:13:57.812Z,9.80
2022-09-17T23:19:00.659Z,11.70
2022-09-17T23:24:03.920Z,10.60
2022-09-17T23:29:06.615Z,9.20
2022-09-17T23:34:10.148Z,10.00
2022-09-17T23:39:12.940Z,11.00
2022-09-17T23:44:16.613Z,11.20
2022-09-17T23:49:19.986Z,10.30
2022-09-17T23:54:22.668Z,10.10
2022-09-17T23:59:25.379Z,8.80
